Time;durP1;ratioP1;P1;durP2;ratioP2;P2;SDS_P1;SDS_P2;PMS_P1;PMS_P2;Temp;Humidity;BMP_temperature;BMP_pressure;BME280_temperature;BME280_humidity;BME280_pressure;Samples;Min_cycle;Max_cycle;Signal;HPM_P1;HPM_P2
2023/02/19 00:04:59;;;;;;;19.77;13.98;;;;;;;;;;10413897;28;20381;-55
2023/02/19 00:09:59;;;;;;;27.00;14.82;;;;;;;;;;10413143;28;20017;-56
2023/02/19 00:15:01;;;;;;;22.85;14.70;;;;;;;;;;10413333;28;20048;-57
2023/02/19 00:20:02;;;;;;;21.33;14.90;;;;;;;;;;10413086;28;20481;-56
2023/02/19 00:25:02;;;;;;;18.83;14.30;;;;;;;;;;10412757;28;20164;-56
2023/02/19 00:30:03;;;;;;;23.52;14.15;;;;;;;;;;10411295;28;20029;-56
2023/02/19 00:35:04;;;;;;;19.25;14.63;;;;;;;;;;10412309;28;20048;-57
2023/02/19 00:40:05;;;;;;;22.92;14.30;;;;;;;;;;10407066;28;20044;-56
2023/02/19 00:45:06;;;;;;;18.08;14.15;;;;;;;;;;10411947;28;20370;-57
2023/02/19 00:50:07;;;;;;;20.55;13.88;;;;;;;;;;10412026;28;20416;-57
2023/02/19 00:55:07;;;;;;;20.35;14.27;;;;;;;;;;10411881;28;20124;-57
2023/02/19 01:00:09;;;;;;;23.42;13.57;;;;;;;;;;10411225;28;20026;-56
2023/02/19 01:05:09;;;;;;;18.85;14.73;;;;;;;;;;10411502;28;20129;-56
2023/02/19 01:10:10;;;;;;;19.67;14.23;;;;;;;;;;10411047;28;20030;-57
2023/02/19 01:15:11;;;;;;;19.02;13.77;;;;;;;;;;10410753;28;20028;-56
2023/02/19 01:20:11;;;;;;;21.38;14.07;;;;;;;;;;10410888;28;20017;-56
2023/02/19 01:25:12;;;;;;;18.17;13.82;;;;;;;;;;10410400;28;20025;-57
2023/02/19 01:30:12;;;;;;;16.48;13.25;;;;;;;;;;10410569;28;20416;-56
2023/02/19 01:35:13;;;;;;;19.52;14.35;;;;;;;;;;10410200;28;20427;-56
2023/02/19 01:40:14;;;;;;;18.40;13.98;;;;;;;;;;10404756;28;20049;-56
2023/02/19 01:45:28;;;;;;;16.63;13.27;;;;;;;;;;10409676;28;20029;-56
2023/02/19 01:50:35;;;;;;;18.92;12.93;;;;;;;;;;10401488;28;20075;-57
2023/02/19 01:55:37;;;;;;;18.70;13.07;;;;;;;;;;10409380;28;20470;-56
2023/02/19 02:00:38;;;;;;;19.58;13.02;;;;;;;;;;10407816;28;20029;-56
2023/02/19 02:06:06;;;;;;;17.52;13.15;;;;;;;;;;10408863;28;20036;-56
2023/02/19 02:11:06;;;;;;;20.48;13.70;;;;;;;;;;10408819;28;20025;-57
2023/02/19 02:16:24;;;;;;;23.55;13.60;;;;;;;;;;10408332;28;20030;-56
2023/02/19 02:21:46;;;;;;;17.05;13.02;;;;;;;;;;10398903;28;20018;-56
2023/02/19 02:27:41;;;;;;;21.13;13.63;;;;;;;;;;10408022;28;20572;-57
2023/02/19 02:33:01;;;;;;;18.20;13.07;;;;;;;;;;10404151;28;20123;-57
2023/02/19 02:38:07;;;;;;;16.95;12.88;;;;;;;;;;10397053;28;20045;-57
2023/02/19 02:43:08;;;;;;;19.42;13.27;;;;;;;;;;10404767;28;20033;-57
2023/02/19 02:48:52;;;;;;;20.67;13.60;;;;;;;;;;10407993;28;20025;-57
2023/02/19 02:59:37;;;;;;;18.40;14.13;;;;;;;;;;10400218;28;20037;-57
2023/02/19 03:10:46;;;;;;;18.17;14.00;;;;;;;;;;10399268;28;20380;-56
2023/02/19 03:21:17;;;;;;;16.45;12.75;;;;;;;;;;10396249;28;20053;-57
2023/02/19 03:26:19;;;;;;;16.52;12.85;;;;;;;;;;10407225;28;20037;-57
2023/02/19 03:31:22;;;;;;;21.17;13.00;;;;;;;;;;10405757;28;20029;-57
2023/02/19 03:36:26;;;;;;;16.88;12.82;;;;;;;;;;10396638;28;20048;-57
2023/02/19 03:41:45;;;;;;;18.38;13.48;;;;;;;;;;10405525;28;20034;-57
2023/02/19 03:47:06;;;;;;;22.40;13.25;;;;;;;;;;10405176;28;20056;-57
2023/02/19 03:52:31;;;;;;;19.67;13.20;;;;;;;;;;10405568;28;20481;-56
2023/02/19 03:57:46;;;;;;;19.55;13.02;;;;;;;;;;10406348;28;20076;-56
2023/02/19 04:02:56;;;;;;;17.90;13.70;;;;;;;;;;10407076;28;20033;-56
2023/02/19 04:08:13;;;;;;;17.77;13.65;;;;;;;;;;10411363;28;20100;-56
2023/02/19 04:13:39;;;;;;;19.45;13.98;;;;;;;;;;10412228;28;20071;-57
2023/02/19 04:18:42;;;;;;;17.85;13.18;;;;;;;;;;10412466;28;20025;-56
2023/02/19 04:23:45;;;;;;;20.00;13.63;;;;;;;;;;10412687;28;20052;-56
2023/02/19 04:28:46;;;;;;;23.02;15.02;;;;;;;;;;10412862;28;20041;-57
2023/02/19 04:33:46;;;;;;;19.80;15.13;;;;;;;;;;10413093;28;20032;-57
2023/02/19 04:38:47;;;;;;;23.75;15.57;;;;;;;;;;10412409;28;20068;-56
2023/02/19 04:43:47;;;;;;;22.05;14.70;;;;;;;;;;10412791;28;20025;-55
2023/02/19 04:48:48;;;;;;;22.08;16.13;;;;;;;;;;10412669;28;20036;-57
2023/02/19 04:53:48;;;;;;;22.10;15.68;;;;;;;;;;10412106;28;20469;-56
2023/02/19 04:58:49;;;;;;;23.02;15.10;;;;;;;;;;10412019;28;20052;-57
2023/02/19 05:03:51;;;;;;;20.85;15.25;;;;;;;;;;10412243;28;20525;-57
2023/02/19 05:08:52;;;;;;;23.70;15.88;;;;;;;;;;10402933;28;20029;-57
2023/02/19 05:13:55;;;;;;;20.50;15.32;;;;;;;;;;10410495;28;20091;-57
2023/02/19 05:18:55;;;;;;;21.92;15.45;;;;;;;;;;10410923;28;20025;-57
2023/02/19 05:23:56;;;;;;;19.88;15.10;;;;;;;;;;10410912;28;20068;-56
2023/02/19 05:28:57;;;;;;;22.50;15.45;;;;;;;;;;10411342;28;20029;-56
2023/02/19 05:33:57;;;;;;;17.05;14.05;;;;;;;;;;10411073;28;20032;-57
2023/02/19 05:38:58;;;;;;;19.75;15.10;;;;;;;;;;10410122;28;20049;-57
2023/02/19 05:43:59;;;;;;;19.02;14.38;;;;;;;;;;10409736;28;20101;-57
2023/02/19 05:48:59;;;;;;;17.92;14.30;;;;;;;;;;10409620;28;20017;-57
2023/02/19 05:54:00;;;;;;;20.38;14.63;;;;;;;;;;10409544;28;20040;-56
2023/02/19 05:59:22;;;;;;;19.25;14.75;;;;;;;;;;10409895;28;20025;-56
2023/02/19 06:04:23;;;;;;;21.30;15.50;;;;;;;;;;10409201;28;20036;-56
2023/02/19 06:09:23;;;;;;;20.98;14.85;;;;;;;;;;10400793;28;20032;-56
2023/02/19 06:14:24;;;;;;;17.50;13.18;;;;;;;;;;10408748;28;20022;-56
2023/02/19 06:19:25;;;;;;;19.20;14.30;;;;;;;;;;10408737;28;20036;-56
2023/02/19 06:24:25;;;;;;;20.27;14.18;;;;;;;;;;10408818;28;20366;-56
2023/02/19 06:29:26;;;;;;;19.02;14.35;;;;;;;;;;10407421;28;20111;-56
2023/02/19 06:34:26;;;;;;;17.30;14.15;;;;;;;;;;10408400;28;20022;-56
2023/02/19 06:39:27;;;;;;;21.15;15.27;;;;;;;;;;10407976;28;20412;-56
2023/02/19 06:44:28;;;;;;;18.02;14.38;;;;;;;;;;10407826;28;20037;-57
2023/02/19 06:49:28;;;;;;;17.95;14.23;;;;;;;;;;10408365;28;20026;-57
2023/02/19 06:54:29;;;;;;;19.17;14.00;;;;;;;;;;10407513;28;20436;-57
2023/02/19 06:59:29;;;;;;;19.23;14.13;;;;;;;;;;10406210;28;20025;-57
2023/02/19 07:04:30;;;;;;;18.73;13.88;;;;;;;;;;10407051;28;20025;-57
2023/02/19 07:09:31;;;;;;;19.02;13.82;;;;;;;;;;10405841;28;20380;-57
2023/02/19 07:14:31;;;;;;;22.00;14.10;;;;;;;;;;10407456;28;20458;-57
2023/02/19 07:19:32;;;;;;;18.10;14.25;;;;;;;;;;10407241;28;20049;-57
2023/02/19 07:24:33;;;;;;;17.05;12.57;;;;;;;;;;10406848;28;20030;-57
2023/02/19 07:29:33;;;;;;;18.55;14.40;;;;;;;;;;10407070;28;20026;-57
2023/02/19 07:34:34;;;;;;;16.67;13.15;;;;;;;;;;10406663;28;20024;-57
2023/02/19 07:39:34;;;;;;;15.73;12.48;;;;;;;;;;10411101;28;20049;-57
2023/02/19 07:44:35;;;;;;;17.10;13.20;;;;;;;;;;10414835;28;20030;-57
2023/02/19 07:49:35;;;;;;;18.23;12.90;;;;;;;;;;10408689;28;20101;-57
2023/02/19 07:54:36;;;;;;;19.15;13.23;;;;;;;;;;10405621;28;20029;-57
2023/02/19 07:59:36;;;;;;;23.33;13.57;;;;;;;;;;10404442;28;20504;-56
2023/02/19 08:04:37;;;;;;;20.60;14.98;;;;;;;;;;10413317;28;20098;-56
2023/02/19 08:09:38;;;;;;;26.75;16.55;;;;;;;;;;10412650;28;20048;-56
2023/02/19 08:14:38;;;;;;;25.50;16.55;;;;;;;;;;10413227;28;20343;-56
2023/02/19 08:19:39;;;;;;;27.40;16.10;;;;;;;;;;10399637;28;20036;-56
2023/02/19 08:24:41;;;;;;;35.40;19.80;;;;;;;;;;10412156;28;20041;-56
2023/02/19 08:29:42;;;;;;;29.50;19.33;;;;;;;;;;10412555;28;20033;-57
2023/02/19 08:34:42;;;;;;;32.95;19.10;;;;;;;;;;10404394;28;20036;-56
2023/02/19 08:39:43;;;;;;;34.45;18.75;;;;;;;;;;10410666;28;20068;-57
2023/02/19 08:44:43;;;;;;;23.23;16.55;;;;;;;;;;10411482;28;20041;-56
2023/02/19 08:49:44;;;;;;;24.13;17.20;;;;;;;;;;10411247;28;20056;-56
2023/02/19 08:54:45;;;;;;;29.40;17.20;;;;;;;;;;10411841;28;20057;-56
2023/02/19 08:59:45;;;;;;;25.33;17.50;;;;;;;;;;10411774;28;20025;-56
2023/02/19 09:04:46;;;;;;;26.80;16.88;;;;;;;;;;10411536;28;20028;-56
2023/02/19 09:09:46;;;;;;;24.63;15.82;;;;;;;;;;10403382;28;20079;-57
2023/02/19 09:14:47;;;;;;;25.35;16.63;;;;;;;;;;10411154;28;20240;-56
2023/02/19 09:19:47;;;;;;;28.75;16.02;;;;;;;;;;10411175;28;20038;-56
2023/02/19 09:24:48;;;;;;;27.52;15.25;;;;;;;;;;10410581;28;20036;-56
2023/02/19 09:29:48;;;;;;;25.30;15.93;;;;;;;;;;10410589;28;20025;-56
2023/02/19 09:34:49;;;;;;;22.10;16.05;;;;;;;;;;10410228;28;20021;-56
2023/02/19 09:39:50;;;;;;;23.73;15.50;;;;;;;;;;10410005;28;20087;-56
2023/02/19 09:44:54;;;;;;;21.05;14.68;;;;;;;;;;10409768;28;20420;-56
2023/02/19 09:50:08;;;;;;;22.85;15.02;;;;;;;;;;10408644;28;20087;-56
2023/02/19 09:55:22;;;;;;;24.63;15.07;;;;;;;;;;10401668;28;20045;-55
2023/02/19 10:00:27;;;;;;;22.90;14.75;;;;;;;;;;10409302;28;20025;-56
2023/02/19 10:05:29;;;;;;;22.20;14.77;;;;;;;;;;10408127;28;20026;-55
2023/02/19 10:10:33;;;;;;;22.80;15.65;;;;;;;;;;10400889;28;20072;-56
2023/02/19 10:15:58;;;;;;;26.33;14.75;;;;;;;;;;10407393;28;20033;-56
2023/02/19 10:20:59;;;;;;;19.10;14.38;;;;;;;;;;10407709;28;20400;-55
2023/02/19 10:25:59;;;;;;;22.88;14.23;;;;;;;;;;10408803;28;20496;-56
2023/02/19 10:31:05;;;;;;;21.23;14.10;;;;;;;;;;10407392;28;20021;-56
2023/02/19 10:36:20;;;;;;;19.65;14.35;;;;;;;;;;10409171;28;20119;-57
2023/02/19 10:41:24;;;;;;;18.77;13.40;;;;;;;;;;10407229;28;20485;-56
2023/02/19 10:46:35;;;;;;;20.83;14.85;;;;;;;;;;10406692;28;20117;-57
2023/02/19 10:51:40;;;;;;;20.10;13.88;;;;;;;;;;10397945;28;20094;-56
2023/02/19 10:56:41;;;;;;;21.17;14.00;;;;;;;;;;10399540;28;20033;-56
2023/02/19 11:02:02;;;;;;;23.17;14.13;;;;;;;;;;10407406;28;20038;-56
2023/02/19 11:07:17;;;;;;;19.60;14.32;;;;;;;;;;10395620;28;20045;-56
2023/02/19 11:12:25;;;;;;;23.17;14.88;;;;;;;;;;10406495;28;20037;-56
2023/02/19 11:17:29;;;;;;;21.13;14.88;;;;;;;;;;10403787;28;20381;-57
2023/02/19 11:22:38;;;;;;;27.58;15.32;;;;;;;;;;10415544;28;20061;-56
2023/02/19 11:28:08;;;;;;;22.08;15.15;;;;;;;;;;10414265;28;20108;-56
2023/02/19 11:33:23;;;;;;;21.17;15.50;;;;;;;;;;10415059;28;20026;-55
2023/02/19 11:38:24;;;;;;;19.48;15.10;;;;;;;;;;10414701;28;20070;-56
2023/02/19 11:43:41;;;;;;;23.08;15.98;;;;;;;;;;10415155;28;20033;-56
2023/02/19 11:49:03;;;;;;;22.30;15.07;;;;;;;;;;10414422;28;20025;-56
2023/02/19 11:54:17;;;;;;;24.15;14.95;;;;;;;;;;10414617;28;20025;-56
2023/02/19 11:59:57;;;;;;;20.73;15.80;;;;;;;;;;10413041;28;20048;-56
2023/02/19 12:05:09;;;;;;;22.85;15.88;;;;;;;;;;10413627;28;20049;-55
2023/02/19 12:10:19;;;;;;;21.77;16.30;;;;;;;;;;10405394;28;20036;-56
2023/02/19 12:15:31;;;;;;;19.35;15.45;;;;;;;;;;10413773;28;20033;-56
2023/02/19 12:20:59;;;;;;;25.85;15.93;;;;;;;;;;10412734;28;20069;-56
2023/02/19 12:26:12;;;;;;;24.57;15.97;;;;;;;;;;10405614;28;20091;-55
2023/02/19 12:31:41;;;;;;;23.10;15.75;;;;;;;;;;10413267;28;20104;-55
2023/02/19 12:37:26;;;;;;;22.25;15.18;;;;;;;;;;10413178;28;20053;-56
2023/02/19 12:42:57;;;;;;;20.80;16.08;;;;;;;;;;10412805;28;20436;-56
2023/02/19 12:48:24;;;;;;;19.35;15.43;;;;;;;;;;10412189;28;20025;-56
2023/02/19 12:53:51;;;;;;;20.20;15.15;;;;;;;;;;10402105;28;20385;-56
2023/02/19 12:59:26;;;;;;;21.08;16.27;;;;;;;;;;10412324;28;20083;-56
2023/02/19 13:04:41;;;;;;;22.38;16.00;;;;;;;;;;10396556;28;20038;-56
2023/02/19 13:09:56;;;;;;;21.60;14.98;;;;;;;;;;10401719;28;20021;-56
2023/02/19 13:15:08;;;;;;;22.27;15.77;;;;;;;;;;10410248;28;20569;-56
2023/02/19 13:20:36;;;;;;;24.00;15.77;;;;;;;;;;10409936;28;20122;-56
2023/02/19 13:26:04;;;;;;;21.33;15.52;;;;;;;;;;10400040;28;20389;-55
2023/02/19 13:31:52;;;;;;;21.93;15.87;;;;;;;;;;10405174;28;20283;-55
2023/02/19 13:36:54;;;;;;;21.23;14.60;;;;;;;;;;10395444;28;20455;-56
2023/02/19 13:41:57;;;;;;;20.20;15.55;;;;;;;;;;10409239;28;20048;-56
2023/02/19 13:46:59;;;;;;;22.80;15.57;;;;;;;;;;10409829;28;20377;-56
2023/02/19 13:52:29;;;;;;;21.50;15.88;;;;;;;;;;10409939;28;20079;-56
2023/02/19 13:57:29;;;;;;;20.25;14.88;;;;;;;;;;10410160;28;20025;-56
2023/02/19 14:02:33;;;;;;;21.25;15.52;;;;;;;;;;10409656;28;20025;-56
2023/02/19 14:07:51;;;;;;;19.05;15.05;;;;;;;;;;10401254;28;20037;-56
2023/02/19 14:12:52;;;;;;;19.92;15.13;;;;;;;;;;10409135;28;20103;-56
2023/02/19 14:17:54;;;;;;;20.60;15.23;;;;;;;;;;10409457;28;20084;-56
2023/02/19 14:23:12;;;;;;;23.83;15.82;;;;;;;;;;10408561;28;20040;-56
2023/02/19 14:28:42;;;;;;;22.88;16.55;;;;;;;;;;10408522;28;20400;-56
2023/02/19 14:33:47;;;;;;;22.02;15.40;;;;;;;;;;10403091;28;20052;-56
2023/02/19 14:38:55;;;;;;;20.83;15.93;;;;;;;;;;10406918;28;20041;-56
2023/02/19 14:43:58;;;;;;;21.10;15.73;;;;;;;;;;10407230;28;20029;-56
2023/02/19 14:49:06;;;;;;;20.90;15.18;;;;;;;;;;10405860;28;20408;-56
2023/02/19 14:54:19;;;;;;;22.48;16.17;;;;;;;;;;10407016;28;20045;-55
2023/02/19 14:59:28;;;;;;;22.52;16.98;;;;;;;;;;10407618;28;20494;-56
2023/02/19 15:04:35;;;;;;;19.97;14.90;;;;;;;;;;10401759;28;20031;-56
2023/02/19 15:09:41;;;;;;;22.30;16.33;;;;;;;;;;10399132;28;20017;-56
2023/02/19 15:14:44;;;;;;;23.15;16.13;;;;;;;;;;10407285;28;20034;-56
2023/02/19 15:19:44;;;;;;;22.35;15.43;;;;;;;;;;10407225;28;20049;-56
2023/02/19 15:24:45;;;;;;;20.85;16.38;;;;;;;;;;10407060;28;20037;-55
2023/02/19 15:29:49;;;;;;;20.65;16.77;;;;;;;;;;10407141;28;20025;-56
2023/02/19 15:35:02;;;;;;;22.02;15.90;;;;;;;;;;10406818;28;20022;-55
2023/02/19 15:40:06;;;;;;;20.05;15.32;;;;;;;;;;10400149;28;20408;-56
2023/02/19 15:45:22;;;;;;;21.15;15.95;;;;;;;;;;10405605;28;20036;-55
2023/02/19 15:50:26;;;;;;;21.67;15.65;;;;;;;;;;10406628;28;20025;-56
2023/02/19 15:55:40;;;;;;;22.80;16.42;;;;;;;;;;10406526;28;20029;-56
2023/02/19 16:00:49;;;;;;;22.40;15.50;;;;;;;;;;10410538;28;20284;-56
2023/02/19 16:06:15;;;;;;;21.60;14.70;;;;;;;;;;10413503;28;20032;-56
2023/02/19 16:11:21;;;;;;;21.02;15.30;;;;;;;;;;10413720;28;20116;-55
2023/02/19 16:16:28;;;;;;;20.17;15.43;;;;;;;;;;10413163;28;20021;-56
2023/02/19 16:21:29;;;;;;;21.63;15.50;;;;;;;;;;10413299;28;20440;-56
2023/02/19 16:26:42;;;;;;;22.00;15.10;;;;;;;;;;10413332;28;20079;-57
2023/02/19 16:32:02;;;;;;;20.50;14.43;;;;;;;;;;10412898;28;20124;-56
2023/02/19 16:37:34;;;;;;;21.10;15.48;;;;;;;;;;10423871;28;20096;-56
2023/02/19 16:42:48;;;;;;;22.85;16.13;;;;;;;;;;10407944;28;20041;-56
2023/02/19 16:47:50;;;;;;;19.48;15.05;;;;;;;;;;10411472;28;20025;-56
2023/02/19 16:52:52;;;;;;;21.05;15.55;;;;;;;;;;10412444;28;20026;-56
2023/02/19 16:57:53;;;;;;;18.23;14.88;;;;;;;;;;10412139;28;20049;-56
2023/02/19 17:03:01;;;;;;;21.98;15.63;;;;;;;;;;10411393;28;20029;-56
2023/02/19 17:08:33;;;;;;;21.67;15.38;;;;;;;;;;10403158;28;20457;-56
2023/02/19 17:13:33;;;;;;;18.83;14.93;;;;;;;;;;10410395;28;20025;-56
2023/02/19 17:18:34;;;;;;;21.95;15.70;;;;;;;;;;10411118;28;20025;-57
2023/02/19 17:23:34;;;;;;;20.02;15.30;;;;;;;;;;10411303;28;20049;-56
2023/02/19 17:28:35;;;;;;;22.50;14.90;;;;;;;;;;10410745;28;20026;-56
2023/02/19 17:33:37;;;;;;;21.13;15.90;;;;;;;;;;10410985;28;20029;-56
2023/02/19 17:38:37;;;;;;;22.60;15.38;;;;;;;;;;10410238;28;20091;-56
2023/02/19 17:43:38;;;;;;;23.40;16.02;;;;;;;;;;10410293;28;20025;-56
2023/02/19 17:48:38;;;;;;;20.85;15.45;;;;;;;;;;10409857;28;20077;-56
2023/02/19 17:53:39;;;;;;;20.52;15.27;;;;;;;;;;10409853;28;20026;-56
2023/02/19 17:58:40;;;;;;;20.10;15.50;;;;;;;;;;10409949;28;20037;-56
2023/02/19 18:03:40;;;;;;;19.80;15.07;;;;;;;;;;10409414;28;20091;-55
2023/02/19 18:08:50;;;;;;;19.55;15.45;;;;;;;;;;10403476;28;20017;-56
2023/02/19 18:13:51;;;;;;;20.05;14.82;;;;;;;;;;10407566;28;20385;-56
2023/02/19 18:18:51;;;;;;;20.85;15.32;;;;;;;;;;10406896;28;20037;-56
2023/02/19 18:23:52;;;;;;;20.38;14.88;;;;;;;;;;10409297;28;20136;-56
2023/02/19 18:28:53;;;;;;;19.92;14.95;;;;;;;;;;10395944;28;20033;-56
2023/02/19 18:33:53;;;;;;;21.42;16.08;;;;;;;;;;10406130;28;20025;-57
2023/02/19 18:38:54;;;;;;;24.50;18.50;;;;;;;;;;10405324;28;20052;-57
2023/02/19 18:43:54;;;;;;;27.70;19.27;;;;;;;;;;10405381;28;20087;-58
2023/02/19 18:48:55;;;;;;;30.60;21.30;;;;;;;;;;10396806;28;20025;-57
2023/02/19 18:53:57;;;;;;;46.97;24.50;;;;;;;;;;10405501;28;20048;-57
2023/02/19 18:58:59;;;;;;;38.10;23.63;;;;;;;;;;10402353;28;20474;-58
2023/02/19 19:03:59;;;;;;;37.38;23.52;;;;;;;;;;10393960;28;20508;-58
2023/02/19 19:09:02;;;;;;;47.53;23.65;;;;;;;;;;10397579;28;20117;-58
2023/02/19 19:14:02;;;;;;;56.40;25.25;;;;;;;;;;10391629;28;20259;-58
2023/02/19 19:19:03;;;;;;;42.47;24.15;;;;;;;;;;10403672;28;20176;-58
2023/02/19 19:24:04;;;;;;;48.17;23.88;;;;;;;;;;10404859;28;20025;-58
2023/02/19 19:29:07;;;;;;;41.75;22.83;;;;;;;;;;10393290;28;20025;-57
2023/02/19 19:34:09;;;;;;;41.15;23.27;;;;;;;;;;10405290;28;20026;-57
2023/02/19 19:39:10;;;;;;;41.22;22.95;;;;;;;;;;10408152;28;20041;-57
2023/02/19 19:44:11;;;;;;;43.30;23.50;;;;;;;;;;10415014;28;20018;-57
2023/02/19 19:49:35;;;;;;;38.97;22.95;;;;;;;;;;10412557;28;20030;-57
2023/02/19 19:54:36;;;;;;;37.40;21.98;;;;;;;;;;10413510;28;20059;-57
2023/02/19 19:59:38;;;;;;;33.20;21.17;;;;;;;;;;10414551;28;20033;-57
2023/02/19 20:04:38;;;;;;;34.47;21.08;;;;;;;;;;10411288;28;20056;-57
2023/02/19 20:09:39;;;;;;;38.25;21.90;;;;;;;;;;10408690;28;20124;-57
2023/02/19 20:14:44;;;;;;;30.35;20.90;;;;;;;;;;10409234;28;20449;-57
2023/02/19 20:19:45;;;;;;;33.22;21.15;;;;;;;;;;10413776;28;20576;-57
2023/02/19 20:24:52;;;;;;;37.35;21.08;;;;;;;;;;10412597;28;20037;-58
2023/02/19 20:29:53;;;;;;;32.05;20.55;;;;;;;;;;10411053;28;20132;-55
2023/02/19 20:34:53;;;;;;;33.50;21.98;;;;;;;;;;10408057;28;20033;-57
2023/02/19 20:39:54;;;;;;;33.08;20.23;;;;;;;;;;10412170;28;20037;-57
2023/02/19 20:44:55;;;;;;;25.52;18.70;;;;;;;;;;10411128;28;20029;-57
2023/02/19 20:49:56;;;;;;;29.13;18.50;;;;;;;;;;10412265;28;20030;-57
2023/02/19 20:54:56;;;;;;;28.65;18.63;;;;;;;;;;10408832;28;20117;-57
2023/02/19 20:59:57;;;;;;;26.70;19.00;;;;;;;;;;10411211;28;20033;-57
2023/02/19 21:04:58;;;;;;;32.28;19.55;;;;;;;;;;10411180;28;20025;-58
2023/02/19 21:09:59;;;;;;;36.17;19.73;;;;;;;;;;10406375;28;20056;-57
2023/02/19 21:14:59;;;;;;;45.40;20.05;;;;;;;;;;10410653;28;20036;-57
2023/02/19 21:20:00;;;;;;;32.58;19.35;;;;;;;;;;10411402;28;20021;-57
2023/02/19 21:25:00;;;;;;;37.17;18.63;;;;;;;;;;10409798;28;20033;-57
2023/02/19 21:30:01;;;;;;;33.70;18.55;;;;;;;;;;10410731;28;20036;-57
2023/02/19 21:35:02;;;;;;;32.08;18.23;;;;;;;;;;10407744;28;20033;-57
2023/02/19 21:40:02;;;;;;;43.78;22.50;;;;;;;;;;10405435;28;20073;-54
2023/02/19 21:45:03;;;;;;;41.63;20.90;;;;;;;;;;10407426;28;20159;-58
2023/02/19 21:50:05;;;;;;;54.72;22.65;;;;;;;;;;10409761;28;20169;-54
2023/02/19 21:55:05;;;;;;;45.53;22.60;;;;;;;;;;10408918;28;20017;-54
2023/02/19 22:00:08;;;;;;;45.15;21.38;;;;;;;;;;10409593;28;20017;-57
2023/02/19 22:05:08;;;;;;;32.83;20.73;;;;;;;;;;10404538;28;20030;-57
2023/02/19 22:10:09;;;;;;;36.03;21.02;;;;;;;;;;10392995;28;20029;-57
2023/02/19 22:15:10;;;;;;;36.63;20.17;;;;;;;;;;10406632;28;20033;-57
2023/02/19 22:20:10;;;;;;;34.97;21.17;;;;;;;;;;10408003;28;20029;-57
2023/02/19 22:25:11;;;;;;;36.90;20.88;;;;;;;;;;10407775;28;20060;-57
2023/02/19 22:30:12;;;;;;;32.25;20.05;;;;;;;;;;10406086;28;20025;-57
2023/02/19 22:35:12;;;;;;;33.85;20.42;;;;;;;;;;10405555;28;20037;-56
2023/02/19 22:40:13;;;;;;;28.75;19.30;;;;;;;;;;10407056;28;20057;-57
2023/02/19 22:45:13;;;;;;;34.70;19.35;;;;;;;;;;10407522;28;20029;-57
2023/02/19 22:50:21;;;;;;;37.47;19.88;;;;;;;;;;10406594;28;20025;-57
2023/02/19 22:55:21;;;;;;;32.42;19.50;;;;;;;;;;10402826;28;20493;-57
2023/02/19 23:00:22;;;;;;;34.40;19.35;;;;;;;;;;10405766;28;20046;-58
2023/02/19 23:05:23;;;;;;;28.00;18.67;;;;;;;;;;10399550;28;20041;-59
2023/02/19 23:10:23;;;;;;;31.23;18.95;;;;;;;;;;10404107;28;20025;-59
2023/02/19 23:15:24;;;;;;;25.75;18.17;;;;;;;;;;10405876;28;20454;-58
2023/02/19 23:20:25;;;;;;;27.05;17.42;;;;;;;;;;10405174;28;20046;-57
2023/02/19 23:25:25;;;;;;;27.25;17.90;;;;;;;;;;10406415;28;20033;-58
2023/02/19 23:30:26;;;;;;;32.67;19.67;;;;;;;;;;10406231;28;20025;-57
2023/02/19 23:35:27;;;;;;;26.55;18.05;;;;;;;;;;10405518;28;20021;-58
2023/02/19 23:40:27;;;;;;;30.90;17.60;;;;;;;;;;10406658;28;20526;-57
2023/02/19 23:45:28;;;;;;;34.20;18.15;;;;;;;;;;10406851;28;20547;-58
2023/02/19 23:50:29;;;;;;;29.08;17.75;;;;;;;;;;10406467;28;20030;-58
2023/02/19 23:55:29;;;;;;;25.27;16.75;;;;;;;;;;10406443;28;20025;-58
